Terminal Aerodrome Forecast
Issued by NWS

Home | Current Version | Previous Version | Graphics & Text | Print | Product List | Glossary On
Versions: 1 2 3 4 5 6 7 8 9 10 11 12 13 14 15 16 17 18
067
FTUS43 KICT 220812 AAA
TAFRSL
TAF AMD
KRSL 220812Z 2208/2306 36013KT P6SM SCT050
     FM221000 01013KT P6SM BKN013
     FM221200 02017KT P6SM OVC017
     FM221400 03017G22KT P6SM SCT025
     FM221700 04017G25KT P6SM SKC=

USA.gov is the U.S. government's official web portal to all federal, state and local government web resources and services.